• Join FlightAware (Why Join?)
  • Login
  • US Flag 
10:12AM EDT


 

Airport Tracker/Info


-or-


 

Live Flight TrackerFlight Track Log ✈ SKW6492 ✈ 02-May-2013 ✈ KAUS - KDEN

Flight Track Log - Related Links

Times and Time Zones

All times are in EDT time to prevent confusion due to time zone crossing. See the SKW6492 flight status page for this flight to view local times or setup timezone preferences in your user account.

Time Position Orientation Groundspeed Altitude Reporting Facility
EDT Latitude Longitude Course Direction KTS MPH feet Rate Location/Type
04:31PM 30.2539 -97.7547 291° West 226 260 5,200  Level Houston Center
04:32PM 30.2867 -97.8286 297° West 252 290 7,800 2,640 Climbing Houston Center
04:33PM 30.4446 -97.7476 293° West  Level FlightAware Approximate
04:33PM 30.3300 -97.9089 302° West 270 311 10,700  Level Houston Center
04:34PM 30.4880 -97.8669 293° West  Level FlightAware Approximate
04:34PM 30.3722 -97.9858 302° West 293 337 12,400  Level Houston Center
04:35PM 30.5292 -97.9874 291° West  Level FlightAware Approximate
04:35PM 30.4203 -98.0761 302° West 320 368 14,200  Level Houston Center
04:36PM 30.5695 -98.1083 291° West  Level FlightAware Approximate
04:36PM 30.4706 -98.1697 302° West 335 386 16,700  Level Houston Center
04:37PM 30.5169 -98.2858 295° West 337 388 18,800 1,860 Climbing Houston Center
04:38PM 30.5589 -98.3878 296° West 345 397 20,600 1,620 Climbing Houston Center
04:39PM 30.6022 -98.4942 295° West 358 412 22,200 1,140 Climbing Houston Center
04:41PM 30.7061 -98.5554 294° West  Level Estimated
04:45PM 30.7717 -99.0919 291° West 415 478 28,000  Level Houston Center
04:46PM 30.8286 -99.2158 298° West 420 483 29,100 1,200 Climbing Houston Center
04:47PM 30.8917 -99.3581 297° West 415 478 30,600 1,440 Climbing Houston Center
04:48PM 31.3980 -98.9667 292° West  Level Estimated
04:48PM 30.9442 -99.4722 298° West 404 465 32,100  Level Houston Center
04:49PM 31.3414 -99.0784 239° Southwest  Level FlightAware Approximate
04:49PM 30.9947 -99.5853 298° West 397 457 33,400  Level Houston Center
04:50PM 31.4406 -99.1364 286° West  Level Estimated
04:50PM 31.0431 -99.6956 297° West 390 449 34,200  Level Houston Center
04:51PM 31.5398 -99.1946 294° West  Level Estimated
04:51PM 31.0925 -99.8083 297° West 391 450 34,800  Level Houston Center
04:52PM 31.4875 -99.3093 242° Southwest  Level FlightAware Approximate
04:52PM 31.1425 -99.9239 297° West 396 456 35,500  Level Houston Center
04:53PM 31.5872 -99.3663 291° West  Level Estimated
04:53PM 31.2039 -100.0594 298° West 396 456 36,900  Level Houston Center
04:54PM 31.2589 -100.1614 302° West 379 436 38,000 480 Climbing Houston Center
04:55PM 31.3544 -100.2222 331° Northwest 395 455 38,000  Level Houston Center
04:56PM 31.4619 -100.2608 343° North 403 464 38,000  Level Houston Center
04:57PM 31.5722 -100.3008 343° North 412 474 38,000  Level Houston Center
04:58PM 31.7044 -100.3500 342° North 414 476 38,000  Level Houston Center
04:59PM 31.8158 -100.3903 343° North 418 481 38,000  Level Houston Center
05:00PM 31.9244 -100.4314 342° North 411 473 38,000  Level Fort Worth Center
05:01PM 32.0361 -100.4742 342° North 416 479 38,000  Level Fort Worth Center
05:02PM 32.1603 -100.5200 343° North 416 479 38,000  Level Fort Worth Center
05:03PM 32.2719 -100.5608 343° North 421 484 38,000  Level Fort Worth Center
05:04PM 32.3836 -100.6017 343° North 421 484 38,000  Level Fort Worth Center
05:05PM 32.4975 -100.6425 343° North 421 484 38,000  Level Fort Worth Center
05:06PM 32.6069 -100.6833 343° North 421 484 38,000  Level Fort Worth Center
05:07PM 32.7164 -100.7269 341° North 421 484 38,000  Level Fort Worth Center
05:08PM 32.8261 -100.7681 343° North 421 484 38,000  Level Fort Worth Center
05:09PM 32.9336 -100.8067 343° North 414 476 38,000  Level Fort Worth Center
05:10PM 33.0431 -100.8481 342° North 414 476 38,000  Level Fort Worth Center
05:11PM 33.1525 -100.8897 342° North 409 471 38,000  Level Fort Worth Center
05:12PM 33.2578 -100.9308 342° North 404 465 38,000  Level Fort Worth Center
05:13PM 33.3692 -100.9728 343° North 404 465 38,000  Level Fort Worth Center
05:14PM 33.4767 -101.0119 343° North 404 465 38,000  Level Fort Worth Center
05:15PM 33.5800 -101.0486 344° North 404 465 38,000  Level Fort Worth Center
05:16PM 33.6975 -101.0958 342° North 413 475 38,000  Level Fort Worth Center
05:17PM 33.7967 -101.1350 342° North 413 475 38,000  Level Fort Worth Center
05:18PM 33.9203 -101.1831 342° North 413 475 38,000  Level Fort Worth Center
05:19PM 34.0172 -101.2197 343° North 419 482 38,000  Level Fort Worth Center
05:20PM 34.1369 -101.2675 342° North 419 482 38,000  Level Fort Worth Center
05:22PM 34.3175 -101.3339 343° North 417 480 38,000  Level Albuquerque Center
05:23PM 34.4292 -101.3783 342° North 421 484 38,000  Level Albuquerque Center
05:24PM 34.5406 -101.4219 342° North 421 484 38,000  Level Albuquerque Center
05:25PM 34.6514 -101.4650 342° North 420 483 38,000  Level Albuquerque Center
05:26PM 34.7606 -101.5106 341° North 416 479 38,000  Level Albuquerque Center
05:27PM 34.8700 -101.5531 342° North 414 476 38,000  Level Albuquerque Center
05:28PM 35.0008 -101.6039 342° North 412 474 38,000  Level Albuquerque Center
05:29PM 35.1128 -101.6489 342° North 417 480 38,000  Level Albuquerque Center
05:30PM 35.2228 -101.6917 342° North 414 476 38,000  Level Albuquerque Center
05:31PM 35.3289 -101.7408 339° North 409 471 38,000  Level Albuquerque Center
05:32PM 35.4378 -101.7917 339° North 411 473 38,000  Level Albuquerque Center
05:33PM 35.5522 -101.8442 340° North 415 478 38,000  Level Albuquerque Center
05:34PM 35.6619 -101.8958 339° North 418 481 38,000  Level Albuquerque Center
05:35PM 35.7717 -101.9467 339° North 421 484 38,000  Level Albuquerque Center
05:36PM 35.8814 -101.9967 340° North 420 483 38,000  Level Albuquerque Center
05:37PM 36.0122 -102.0583 339° North 420 483 38,000  Level Albuquerque Center
05:38PM 36.1197 -102.1086 339° North 415 478 38,000  Level Albuquerque Center
05:39PM 36.2275 -102.1589 339° North 414 476 38,000  Level Albuquerque Center
05:40PM 36.3328 -102.2083 339° North 408 470 38,000  Level Albuquerque Center
05:41PM 36.4400 -102.2606 339° North 412 474 38,000  Level Albuquerque Center
05:42PM 36.5456 -102.3092 340° North 407 468 38,000  Level Albuquerque Center
05:43PM 36.6533 -102.3603 339° North 412 474 38,000  Level Albuquerque Center
05:44PM 36.7814 -102.4231 339° North 413 475 38,000  Level Albuquerque Center
05:46PM 36.8650 -102.4631 339° North 407 468 38,100 -120 Climbing Albuquerque Center
05:47PM 36.9983 -102.5278 339° North 415 478 37,800 -420 Descending Albuquerque Center
05:48PM 37.1042 -102.5783 339° North 421 484 37,300 -540 Descending Albuquerque Center
05:49PM 37.2297 -102.6394 339° North 430 495 36,800 -540 Descending Albuquerque Center
05:50PM 37.3403 -102.6947 338° Northwest 439 505 36,300 -420 Descending Albuquerque Center
05:51PM 37.4675 -102.7542 340° North 440 506 36,000 -240 Descending Albuquerque Center
05:51PM 37.4664 -102.7525 130° Southeast 434 499 36,000  Level Denver Center
05:52PM 37.6033 -102.8061 343° North 411 473 36,000  Level Denver Center
05:53PM 37.7053 -102.8378 346° North 396 456 36,000  Level Denver Center
05:54PM 37.8203 -102.8744 346° North 383 441 36,000 -300 Level Denver Center
05:55PM 37.9169 -102.9042 346° North 376 433 35,500 -840 Descending Denver Center
05:56PM 38.0353 -102.9431 345° North 386 444 34,300 -1,020 Descending Denver Center
05:57PM 38.1394 -102.9750 346° North 399 459 33,400 -960 Descending Denver Center
05:58PM 38.2603 -103.0133 346° North 399 459 32,300 -1,020 Descending Denver Center
05:59PM 38.3642 -103.0467 346° North 400 460 31,300 -1,020 Descending Denver Center
06:00PM 38.4678 -103.0806 346° North 401 461 30,300 -660 Descending Denver Center
06:01PM 38.5736 -103.1458 334° Northwest 402 463 30,000 -360 Descending Denver Center
06:02PM 38.6442 -103.2467 312° West 379 436 29,600 -720 Descending Denver Center
06:03PM 38.7144 -103.3475 312° West 375 432 28,600 -720 Descending Denver Center
06:05PM 38.7933 -103.4597 312° West 373 429 28,000 -1,020 Descending Denver Center
06:06PM 38.8742 -103.5722 313° West 354 407 26,400 -1,500 Descending Denver Center
06:07PM 38.9403 -103.6642 313° West 347 399 24,900 -1,440 Descending Denver Center
06:08PM 39.0028 -103.7564 311° West 339 390 23,500 -1,140 Descending Denver Center
06:09PM 39.0669 -103.8458 313° West 337 388 22,600 -780 Descending Denver Center
06:10PM 39.1264 -103.9317 312° West 323 372 22,000 -1,140 Descending Denver Center
06:11PM 39.1800 -104.0083 312° West 292 336 20,300 -1,980 Descending Denver Center
06:12PM 39.2461 -104.0836 319° Northwest 271 312 18,000 -1,800 Descending Denver Center
06:13PM 39.2936 -104.1617 308° West 280 322 16,600 -1,740 Descending Denver Center
06:14PM 39.3353 -104.2422 304° West 274 315 14,500 -1,500 Descending Denver Center
06:15PM 39.3533 -104.3344 284° West 248 285 13,600 -720 Descending Denver Center
06:16PM 39.3606 -104.4139 277° West 222 255 13,100 -1,080 Descending Denver Center
06:17PM 39.4097 -104.4714 318° Northwest 235 270 11,400 -1,800 Descending Denver Center
06:18PM 39.4661 -104.5136 330° Northwest 233 268 9,400 -1,140 Descending Denver Center
06:19PM 39.5211 -104.5600 327° Northwest 236 272 9,100 -180 Descending Denver Center
06:20PM 39.5800 -104.6089 327° Northwest 234 269 9,100  Level Denver Center
06:21PM 39.6378 -104.6444 335° Northwest 233 268 9,100  Level Denver Center